Haines Creek, Florida
Current Conditions -  °F | °C
As of 8:53 AM on Sunday 23 Nov 2014 (Local Time) from KLEE Reporting Station
Overcast Overcast  
Wind Chill: 72°   Ceiling: 1300
Heat Index: 72°   Visibility: 9mi
Dew Point: 70°   Wind: 8mph
Humidity: 93%   Direction: 170°S
Pressure: 30.02"   Gusts: NA
Location:  28.9183°N, 81.7888°W
Report Text: KLEE 231353Z 17007KT 9SM OVC013 22/21 A3002 RMK AO2 SLP163 T02220211
Loading
Personal Weather Stations






























Interactive Weather Map New forecast layout! Learn more

10-Day Weather Forecast

Advertisements
Track Severe Weather on mobile